createdAt,value
2019-03-10T00:00:31.342Z,0.00
2019-03-10T00:01:31.350Z,0.00
2019-03-10T00:02:31.307Z,0.00
2019-03-10T00:03:31.313Z,0.00
2019-03-10T00:04:31.295Z,0.00
2019-03-10T00:05:31.290Z,0.00
2019-03-10T00:06:31.313Z,0.00
2019-03-10T00:07:31.268Z,0.00
2019-03-10T00:08:31.262Z,0.00
2019-03-10T00:09:31.241Z,0.00
2019-03-10T00:10:31.230Z,0.00
2019-03-10T00:11:31.247Z,0.00
2019-03-10T00:12:31.207Z,0.00
2019-03-10T00:13:31.196Z,0.00
2019-03-10T00:14:31.188Z,0.00
2019-03-10T00:15:31.180Z,0.00
2019-03-10T00:16:31.216Z,0.00
2019-03-10T00:17:31.159Z,0.00
2019-03-10T00:18:31.145Z,0.00
2019-03-10T00:19:31.130Z,0.00
2019-03-10T00:20:31.125Z,0.00
2019-03-10T00:21:31.127Z,0.00
2019-03-10T00:22:31.091Z,0.00
2019-03-10T00:23:31.090Z,0.00
2019-03-10T00:24:31.085Z,0.00
2019-03-10T00:25:31.057Z,0.00
2019-03-10T00:26:31.072Z,0.00
2019-03-10T00:27:31.051Z,0.00
2019-03-10T00:28:31.061Z,0.00
2019-03-10T00:29:31.026Z,0.00
2019-03-10T00:30:31.016Z,0.00
2019-03-10T00:31:31.446Z,0.00
2019-03-10T00:32:30.994Z,0.00
2019-03-10T00:33:30.970Z,0.00
2019-03-10T00:34:30.971Z,0.00
2019-03-10T00:35:30.945Z,0.00
2019-03-10T00:36:30.953Z,0.00
2019-03-10T00:37:30.924Z,0.00
2019-03-10T00:38:30.927Z,0.00
2019-03-10T00:39:30.910Z,0.00
2019-03-10T00:40:30.897Z,0.00
2019-03-10T00:41:30.903Z,0.00
2019-03-10T00:42:30.878Z,0.00
2019-03-10T00:43:30.868Z,0.00
2019-03-10T00:44:30.855Z,0.00
2019-03-10T00:45:30.843Z,0.00
2019-03-10T00:46:30.843Z,0.00
2019-03-10T00:47:30.821Z,0.00
2019-03-10T00:48:30.806Z,0.00
2019-03-10T00:49:30.804Z,0.00
2019-03-10T00:50:30.795Z,0.00
2019-03-10T00:51:30.788Z,0.00
2019-03-10T00:52:30.762Z,0.00
2019-03-10T00:53:30.755Z,0.00
2019-03-10T00:54:30.740Z,0.00
2019-03-10T00:55:30.728Z,0.00
2019-03-10T00:56:30.746Z,0.00
2019-03-10T00:57:30.716Z,0.00
2019-03-10T00:58:30.692Z,0.00
2019-03-10T00:59:30.687Z,0.00
2019-03-10T01:00:30.684Z,0.00
2019-03-10T01:01:30.694Z,0.00
2019-03-10T01:02:30.677Z,0.00
2019-03-10T01:03:30.651Z,0.00
2019-03-10T01:04:30.671Z,0.00
2019-03-10T01:05:30.617Z,0.00
2019-03-10T01:06:30.606Z,0.00
2019-03-10T01:07:30.622Z,0.00
2019-03-10T01:08:30.632Z,0.00
2019-03-10T01:09:30.598Z,0.00
2019-03-10T01:10:30.571Z,0.00
2019-03-10T01:11:30.558Z,0.00
2019-03-10T01:12:31.331Z,0.00
2019-03-10T01:13:30.541Z,0.00
2019-03-10T01:14:30.522Z,0.00
2019-03-10T01:15:30.510Z,0.00
2019-03-10T01:16:30.493Z,0.00
2019-03-10T01:17:30.536Z,0.00
2019-03-10T01:18:30.488Z,0.00
2019-03-10T01:19:30.465Z,0.00
2019-03-10T01:20:30.458Z,0.00
2019-03-10T01:21:30.451Z,0.00
2019-03-10T01:22:30.455Z,0.00
2019-03-10T01:23:30.430Z,0.00
2019-03-10T01:24:30.415Z,0.00
2019-03-10T01:25:30.394Z,0.00
2019-03-10T01:26:30.396Z,0.00
2019-03-10T01:27:30.400Z,0.00
2019-03-10T01:28:30.374Z,0.00
2019-03-10T01:29:30.363Z,0.00
2019-03-10T01:30:30.353Z,0.00
2019-03-10T01:31:30.334Z,0.00
2019-03-10T01:32:30.373Z,0.00
2019-03-10T01:33:30.313Z,0.00
2019-03-10T01:34:30.308Z,0.00
2019-03-10T01:35:30.285Z,0.00
2019-03-10T01:36:30.283Z,0.00
2019-03-10T01:38:39.495Z,0.00
2019-03-10T01:39:40.449Z,0.00
2019-03-10T01:40:40.452Z,0.00
2019-03-10T01:41:40.424Z,0.00
2019-03-10T01:42:40.435Z,0.00
2019-03-10T01:43:40.428Z,0.00
2019-03-10T01:44:40.395Z,0.00
2019-03-10T01:45:40.394Z,0.00
2019-03-10T01:46:40.376Z,0.00
2019-03-10T01:47:40.386Z,0.00
2019-03-10T01:48:40.360Z,0.00
2019-03-10T01:49:40.335Z,0.00
2019-03-10T01:50:40.329Z,0.00
2019-03-10T01:51:40.324Z,0.00
2019-03-10T01:52:40.332Z,0.00
2019-03-10T01:53:40.302Z,0.00
2019-03-10T01:54:40.297Z,0.00
2019-03-10T01:55:40.323Z,0.00
2019-03-10T01:56:40.276Z,0.00
2019-03-10T01:57:40.289Z,0.00
2019-03-10T01:58:40.266Z,0.00
2019-03-10T01:59:40.230Z,0.00
2019-03-10T02:00:40.229Z,0.00
2019-03-10T02:01:40.211Z,0.00
2019-03-10T02:02:40.211Z,0.00
2019-03-10T02:03:40.185Z,0.00
2019-03-10T02:04:40.182Z,0.00
2019-03-10T02:05:40.177Z,0.00
2019-03-10T02:06:40.163Z,0.00
2019-03-10T02:07:40.160Z,0.00
2019-03-10T02:08:40.139Z,0.00
2019-03-10T02:09:40.118Z,0.00
2019-03-10T02:10:40.114Z,0.00
2019-03-10T02:11:40.112Z,0.00
2019-03-10T02:12:40.114Z,0.00
2019-03-10T02:13:40.095Z,0.00
2019-03-10T02:14:40.074Z,0.00
2019-03-10T02:15:40.068Z,0.00
2019-03-10T02:16:40.048Z,0.00
2019-03-10T02:17:40.072Z,0.00
2019-03-10T02:18:40.023Z,0.00
2019-03-10T02:19:40.025Z,0.00
2019-03-10T02:20:40.016Z,0.00
2019-03-10T02:21:40.002Z,0.00
2019-03-10T02:22:40.005Z,0.00
2019-03-10T02:23:39.977Z,0.00
2019-03-10T02:24:39.971Z,0.00
2019-03-10T02:25:39.951Z,0.00
2019-03-10T02:26:39.949Z,0.00
2019-03-10T02:27:39.953Z,0.00
2019-03-10T02:28:39.930Z,0.00
2019-03-10T02:29:39.907Z,0.00
2019-03-10T02:30:39.901Z,0.00
2019-03-10T02:31:39.901Z,0.00
2019-03-10T02:32:39.908Z,0.00
2019-03-10T02:33:39.864Z,0.00
2019-03-10T02:34:39.879Z,0.00
2019-03-10T02:35:39.848Z,0.00
2019-03-10T02:36:39.829Z,0.00
2019-03-10T02:37:39.871Z,0.00
2019-03-10T02:38:39.808Z,0.00
2019-03-10T02:39:39.804Z,0.00
2019-03-10T02:40:39.798Z,0.00
2019-03-10T02:41:39.790Z,0.00
2019-03-10T02:42:39.786Z,0.00
2019-03-10T02:43:39.755Z,0.00
2019-03-10T02:44:39.772Z,0.00
2019-03-10T02:45:39.733Z,0.00
2019-03-10T02:46:39.835Z,0.00
2019-03-10T02:47:39.747Z,0.00
2019-03-10T02:48:39.711Z,0.00
2019-03-10T02:49:39.686Z,0.00
2019-03-10T02:50:39.677Z,0.00
2019-03-10T02:51:39.683Z,0.00
2019-03-10T02:52:39.682Z,0.00
2019-03-10T02:53:39.674Z,0.00
2019-03-10T02:54:39.644Z,0.00
2019-03-10T02:55:39.633Z,0.00
2019-03-10T02:56:39.648Z,0.00
2019-03-10T02:57:39.633Z,0.00
2019-03-10T02:58:39.599Z,0.00
2019-03-10T02:59:39.579Z,0.00
2019-03-10T03:00:39.572Z,0.00
2019-03-10T03:01:39.565Z,0.00
2019-03-10T03:02:39.576Z,0.00
2019-03-10T03:03:39.553Z,0.00
2019-03-10T03:04:39.545Z,0.00
2019-03-10T03:05:39.534Z,0.00
2019-03-10T03:06:39.523Z,0.00
2019-03-10T03:07:39.527Z,0.00
2019-03-10T03:08:39.491Z,0.00
2019-03-10T03:09:39.476Z,0.00
2019-03-10T03:10:39.470Z,0.00
2019-03-10T03:11:39.457Z,0.00
2019-03-10T03:12:39.477Z,0.00
2019-03-10T03:13:39.438Z,0.00
2019-03-10T03:14:39.513Z,0.00
2019-03-10T03:15:39.408Z,0.00
2019-03-10T03:16:39.436Z,0.00
2019-03-10T03:17:39.466Z,0.00
2019-03-10T03:18:39.399Z,0.00
2019-03-10T03:19:39.372Z,0.00
2019-03-10T03:20:39.380Z,0.00
2019-03-10T03:21:43.578Z,0.00
2019-03-10T03:22:39.334Z,0.00
2019-03-10T03:23:39.401Z,0.00
2019-03-10T03:24:39.369Z,0.00
2019-03-10T03:25:39.307Z,0.00
2019-03-10T03:26:39.314Z,0.00
2019-03-10T03:27:39.284Z,0.00
2019-03-10T03:28:39.296Z,0.00
2019-03-10T03:29:39.252Z,0.00
2019-03-10T03:30:39.248Z,0.00
2019-03-10T03:31:39.240Z,0.00
2019-03-10T03:32:39.234Z,0.00
2019-03-10T03:33:39.244Z,0.00
2019-03-10T03:34:39.286Z,0.00
2019-03-10T03:35:39.199Z,0.00
2019-03-10T03:36:39.178Z,0.00
2019-03-10T03:37:39.173Z,0.00
2019-03-10T03:39:48.389Z,0.00
2019-03-10T03:40:49.349Z,0.00
2019-03-10T03:41:49.343Z,0.00
2019-03-10T03:42:49.328Z,0.00
2019-03-10T03:43:49.323Z,0.00
2019-03-10T03:44:49.298Z,0.00
2019-03-10T03:45:49.311Z,0.00
2019-03-10T03:46:49.281Z,0.00
2019-03-10T03:47:49.261Z,0.00
2019-03-10T03:48:49.290Z,0.00
2019-03-10T03:49:49.244Z,0.00
2019-03-10T03:50:49.236Z,0.00
2019-03-10T03:51:49.238Z,0.00
2019-03-10T03:52:49.225Z,0.00
2019-03-10T03:53:49.215Z,0.00
2019-03-10T03:54:49.194Z,0.00
2019-03-10T03:55:49.190Z,0.00
2019-03-10T03:56:49.175Z,0.00
2019-03-10T03:57:49.160Z,0.00
2019-03-10T03:58:49.174Z,0.00
2019-03-10T03:59:49.145Z,0.00
2019-03-10T04:00:49.119Z,0.00
2019-03-10T04:01:49.122Z,0.00
2019-03-10T04:02:49.104Z,0.00
2019-03-10T04:03:49.117Z,0.00
2019-03-10T04:04:49.095Z,0.00
2019-03-10T04:05:49.076Z,0.00
2019-03-10T04:06:49.066Z,0.00
2019-03-10T04:07:49.063Z,0.00
2019-03-10T04:08:49.109Z,0.00
2019-03-10T04:09:49.032Z,0.00
2019-03-10T04:10:49.039Z,0.00
2019-03-10T04:11:49.033Z,0.00
2019-03-10T04:12:49.040Z,0.00
2019-03-10T04:13:48.998Z,0.00
2019-03-10T04:14:48.968Z,0.00
2019-03-10T04:15:48.968Z,0.00
2019-03-10T04:16:48.947Z,0.00
2019-03-10T04:17:48.949Z,0.00
2019-03-10T04:18:48.945Z,0.00
2019-03-10T04:19:48.925Z,0.00
2019-03-10T04:20:48.905Z,0.00
2019-03-10T04:21:48.886Z,0.00
2019-03-10T04:22:48.885Z,0.00
2019-03-10T04:23:48.906Z,0.00
2019-03-10T04:24:48.859Z,0.00
2019-03-10T04:25:48.856Z,0.00
2019-03-10T04:26:48.852Z,0.00
2019-03-10T04:27:48.830Z,0.00
2019-03-10T04:28:48.837Z,0.00
2019-03-10T04:29:48.825Z,0.00
2019-03-10T04:30:48.794Z,0.00
2019-03-10T04:31:48.787Z,0.00
2019-03-10T04:32:48.772Z,0.00
2019-03-10T04:33:48.775Z,0.00
2019-03-10T04:34:48.807Z,0.00
2019-03-10T04:35:48.738Z,0.00
2019-03-10T04:36:48.761Z,0.00
2019-03-10T04:37:48.734Z,0.00
2019-03-10T04:38:48.725Z,0.00
2019-03-10T04:39:48.714Z,0.00
2019-03-10T04:40:48.692Z,0.00
2019-03-10T04:41:48.676Z,0.00
2019-03-10T04:42:48.670Z,0.00
2019-03-10T04:43:48.657Z,0.00
2019-03-10T04:44:48.656Z,0.00
2019-03-10T04:45:48.645Z,0.00
2019-03-10T04:46:48.618Z,0.00
2019-03-10T04:47:48.610Z,0.00
2019-03-10T04:48:49.102Z,0.00
2019-03-10T04:49:48.613Z,0.00
2019-03-10T04:50:48.582Z,0.00
2019-03-10T04:51:48.558Z,0.00
2019-03-10T04:52:48.555Z,0.00
2019-03-10T04:53:48.542Z,0.00
2019-03-10T04:54:48.548Z,0.00
2019-03-10T04:55:48.524Z,0.00
2019-03-10T04:56:48.518Z,0.00
2019-03-10T04:57:48.516Z,0.00
2019-03-10T04:58:48.486Z,0.00
2019-03-10T04:59:48.503Z,0.00
2019-03-10T05:00:48.460Z,0.00
2019-03-10T05:01:48.458Z,0.00
2019-03-10T05:02:48.445Z,0.00
2019-03-10T05:03:48.428Z,0.00
2019-03-10T05:04:48.438Z,0.00
2019-03-10T05:05:48.414Z,0.00
2019-03-10T05:06:48.399Z,0.00
2019-03-10T05:07:48.383Z,0.00
2019-03-10T05:08:48.391Z,0.00
2019-03-10T05:09:48.396Z,0.00
2019-03-10T05:10:48.363Z,0.00
2019-03-10T05:11:48.352Z,0.00
2019-03-10T05:12:48.340Z,0.00
2019-03-10T05:13:48.329Z,0.00
2019-03-10T05:14:48.334Z,0.00
2019-03-10T05:15:48.297Z,0.00
2019-03-10T05:16:48.291Z,0.00
2019-03-10T05:17:48.289Z,0.00
2019-03-10T05:18:48.298Z,0.00
2019-03-10T05:19:48.303Z,0.00
2019-03-10T05:20:49.115Z,0.00
2019-03-10T05:21:48.237Z,0.00
2019-03-10T05:22:48.239Z,0.00
2019-03-10T05:23:48.223Z,0.00
2019-03-10T05:24:48.213Z,0.00
2019-03-10T05:25:48.210Z,0.00
2019-03-10T05:26:48.191Z,0.00
2019-03-10T05:27:48.198Z,0.00
2019-03-10T05:28:48.164Z,0.00
2019-03-10T05:29:48.190Z,0.00
2019-03-10T05:30:48.144Z,0.00
2019-03-10T05:31:48.135Z,0.00
2019-03-10T05:32:48.125Z,0.00
2019-03-10T05:33:48.112Z,4.00
2019-03-10T05:34:48.111Z,4.00
2019-03-10T05:35:48.085Z,0.00
2019-03-10T05:36:48.069Z,4.00
2019-03-10T05:37:48.063Z,4.00
2019-03-10T05:38:48.043Z,8.00
2019-03-10T05:40:57.256Z,8.00
2019-03-10T05:41:58.227Z,8.00
2019-03-10T05:42:58.209Z,8.00
2019-03-10T05:43:58.902Z,8.00
2019-03-10T05:44:58.211Z,12.00
2019-03-10T05:45:58.185Z,16.00
2019-03-10T05:46:58.161Z,16.00
2019-03-10T05:47:58.165Z,16.00
2019-03-10T05:48:58.161Z,20.00
2019-03-10T05:49:58.153Z,24.00
2019-03-10T05:50:58.125Z,24.00
2019-03-10T05:51:58.130Z,28.00
2019-03-10T05:52:58.111Z,28.00
2019-03-10T05:53:58.086Z,32.00
2019-03-10T05:54:58.099Z,36.00
2019-03-10T05:55:58.069Z,44.00
2019-03-10T05:56:58.067Z,44.00
2019-03-10T05:57:58.051Z,52.00
2019-03-10T05:58:58.039Z,52.00
2019-03-10T05:59:58.061Z,56.00
2019-03-10T06:00:58.028Z,60.00
2019-03-10T06:01:58.000Z,56.00
2019-03-10T06:02:57.991Z,52.00
2019-03-10T06:03:57.974Z,48.00
2019-03-10T06:04:57.993Z,48.00
2019-03-10T06:05:57.956Z,44.00
2019-03-10T06:06:57.956Z,48.00
2019-03-10T06:07:57.930Z,48.00
2019-03-10T06:08:57.925Z,52.00
2019-03-10T06:09:57.943Z,56.00
2019-03-10T06:10:57.908Z,56.00
2019-03-10T06:11:57.896Z,60.00
2019-03-10T06:12:58.493Z,64.00
2019-03-10T06:13:57.875Z,72.00
2019-03-10T06:14:57.881Z,80.00
2019-03-10T06:15:57.858Z,80.00
2019-03-10T06:16:57.841Z,92.00
2019-03-10T06:17:57.830Z,104.00
2019-03-10T06:18:57.827Z,112.00
2019-03-10T06:19:57.855Z,120.00
2019-03-10T06:20:57.808Z,132.00
2019-03-10T06:21:57.777Z,148.00
2019-03-10T06:22:57.772Z,156.00
2019-03-10T06:23:57.755Z,156.00
2019-03-10T06:24:57.763Z,152.00
2019-03-10T06:25:57.736Z,156.00
2019-03-10T06:26:57.729Z,160.00
2019-03-10T06:27:57.720Z,164.00
2019-03-10T06:28:57.705Z,152.00
2019-03-10T06:29:57.715Z,140.00
2019-03-10T06:30:57.688Z,128.00
2019-03-10T06:31:57.673Z,120.00
2019-03-10T06:32:57.660Z,116.00
2019-03-10T06:33:57.669Z,124.00
2019-03-10T06:34:57.654Z,144.00
2019-03-10T06:35:57.633Z,164.00
2019-03-10T06:36:57.625Z,180.00
2019-03-10T06:37:57.599Z,204.00
2019-03-10T06:38:57.600Z,220.00
2019-03-10T06:39:57.604Z,228.00
2019-03-10T06:40:57.619Z,228.00
2019-03-10T06:41:57.609Z,236.00
2019-03-10T06:42:57.564Z,240.00
2019-03-10T06:43:57.554Z,240.00
2019-03-10T06:44:57.536Z,228.00
2019-03-10T06:45:57.531Z,212.00
2019-03-10T06:46:57.513Z,204.00
2019-03-10T06:47:57.497Z,204.00
2019-03-10T06:48:57.476Z,208.00
2019-03-10T06:49:57.502Z,228.00
2019-03-10T06:50:57.511Z,252.00
2019-03-10T06:51:57.456Z,276.00
2019-03-10T06:52:57.456Z,300.00
2019-03-10T06:53:57.435Z,316.00
2019-03-10T06:54:57.422Z,340.00
2019-03-10T06:55:57.434Z,384.00
2019-03-10T06:56:57.477Z,440.00
2019-03-10T06:57:57.405Z,484.00
2019-03-10T06:58:57.400Z,524.00
2019-03-10T06:59:57.361Z,572.00
2019-03-10T07:00:57.402Z,604.00
2019-03-10T07:01:57.338Z,600.00
2019-03-10T07:02:57.324Z,576.00
2019-03-10T07:03:57.335Z,524.00
2019-03-10T07:04:57.327Z,456.00
2019-03-10T07:05:57.321Z,400.00
2019-03-10T07:06:57.312Z,356.00
2019-03-10T07:07:57.272Z,360.00
2019-03-10T07:08:57.273Z,400.00
2019-03-10T07:09:57.249Z,420.00
2019-03-10T07:10:57.303Z,428.00
2019-03-10T07:11:57.265Z,404.00
2019-03-10T07:12:57.225Z,364.00
2019-03-10T07:13:57.201Z,332.00
2019-03-10T07:14:57.190Z,328.00
2019-03-10T07:15:57.245Z,360.00
2019-03-10T07:16:57.185Z,412.00
2019-03-10T07:17:57.161Z,472.00
2019-03-10T07:18:57.175Z,520.00
2019-03-10T07:19:57.157Z,528.00
2019-03-10T07:20:57.842Z,532.00
2019-03-10T07:21:57.133Z,540.00
2019-03-10T07:22:57.122Z,568.00
2019-03-10T07:23:57.095Z,608.00
2019-03-10T07:24:57.109Z,660.00
2019-03-10T07:25:57.097Z,716.00
2019-03-10T07:26:57.064Z,784.00
2019-03-10T07:27:57.055Z,828.00
2019-03-10T07:28:57.063Z,828.00
2019-03-10T07:29:57.038Z,788.00
2019-03-10T07:30:57.051Z,744.00
2019-03-10T07:31:57.021Z,696.00
2019-03-10T07:32:57.024Z,648.00
2019-03-10T07:33:56.998Z,608.00
2019-03-10T07:34:56.996Z,592.00
2019-03-10T07:35:56.995Z,612.00
2019-03-10T07:36:56.954Z,692.00
2019-03-10T07:37:56.954Z,796.00
2019-03-10T07:38:56.933Z,896.00
2019-03-10T07:39:56.926Z,1000.00
2019-03-10T08:03:47.464Z,2056.00
2019-03-10T08:04:48.509Z,2180.00
2019-03-10T08:05:48.425Z,2256.00
2019-03-10T08:06:48.450Z,2184.00
2019-03-10T08:07:48.454Z,1988.00
2019-03-10T08:08:48.453Z,1776.00
2019-03-10T08:09:48.386Z,1676.00
2019-03-10T08:10:48.367Z,1648.00
2019-03-10T08:11:48.375Z,1584.00
2019-03-10T08:12:48.356Z,1504.00
2019-03-10T08:13:48.385Z,1500.00
2019-03-10T08:14:48.355Z,1632.00
2019-03-10T08:15:48.352Z,1920.00
2019-03-10T08:16:48.326Z,2124.00
2019-03-10T08:17:48.302Z,2140.00
2019-03-10T08:18:48.336Z,2080.00
2019-03-10T08:19:48.320Z,1996.00
2019-03-10T08:20:48.295Z,1872.00
2019-03-10T08:21:48.299Z,1692.00
2019-03-10T08:22:48.252Z,1484.00
2019-03-10T08:23:48.273Z,1300.00
2019-03-10T08:24:48.206Z,1156.00
2019-03-10T08:25:48.216Z,1052.00
2019-03-10T08:26:48.209Z,976.00
2019-03-10T08:27:48.215Z,888.00
2019-03-10T08:28:48.191Z,768.00
2019-03-10T08:29:48.189Z,672.00
2019-03-10T08:30:48.178Z,620.00
2019-03-10T08:31:48.177Z,644.00
2019-03-10T08:32:48.137Z,768.00
2019-03-10T08:33:48.118Z,1048.00
2019-03-10T08:34:48.144Z,1508.00
2019-03-10T08:35:48.099Z,1820.00
2019-03-10T08:36:48.133Z,1772.00
2019-03-10T08:37:48.130Z,1732.00
2019-03-10T08:38:48.098Z,1920.00
2019-03-10T08:39:48.078Z,2264.00
2019-03-10T08:40:48.091Z,2516.00
2019-03-10T08:41:48.054Z,2692.00
2019-03-10T08:42:49.585Z,3052.00
2019-03-10T08:43:48.020Z,3380.00
2019-03-10T08:44:48.022Z,3504.00
2019-03-10T08:45:47.986Z,3708.00
2019-03-10T08:46:48.013Z,3928.00
2019-03-10T08:47:47.978Z,3812.00
2019-03-10T08:48:48.004Z,3792.00
2019-03-10T08:49:47.945Z,3940.00
2019-03-10T08:50:47.939Z,3888.00
2019-03-10T08:51:47.926Z,3628.00
2019-03-10T08:52:47.947Z,3468.00
2019-03-10T08:53:47.902Z,3480.00
2019-03-10T08:54:47.981Z,3544.00
2019-03-10T08:55:47.940Z,3384.00
2019-03-10T08:56:47.929Z,3092.00
2019-03-10T08:57:47.906Z,2900.00
2019-03-10T08:58:47.912Z,2864.00
2019-03-10T08:59:47.840Z,3076.00
2019-03-10T09:00:47.906Z,3372.00
2019-03-10T09:01:47.902Z,3536.00
2019-03-10T09:02:47.825Z,3420.00
2019-03-10T09:03:47.955Z,3556.00
2019-03-10T09:04:47.780Z,3752.00
2019-03-10T09:05:47.796Z,3904.00
2019-03-10T09:06:47.791Z,4108.00
2019-03-10T09:07:47.789Z,4268.00
2019-03-10T09:08:47.742Z,3972.00
2019-03-10T09:09:47.752Z,3296.00
2019-03-10T09:10:47.716Z,2840.00
2019-03-10T09:11:47.736Z,3000.00
2019-03-10T09:12:47.710Z,3788.00
2019-03-10T09:13:47.698Z,4592.00
2019-03-10T09:14:47.702Z,5096.00
2019-03-10T09:15:47.701Z,5080.00
2019-03-10T09:16:47.687Z,4492.00
2019-03-10T09:17:47.675Z,4060.00
2019-03-10T09:18:47.636Z,3956.00
2019-03-10T09:19:47.631Z,3980.00
2019-03-10T09:20:47.634Z,4192.00
2019-03-10T09:21:47.610Z,4312.00
2019-03-10T09:22:47.653Z,3748.00
2019-03-10T09:23:47.628Z,3644.00
2019-03-10T09:24:47.561Z,3580.00
2019-03-10T09:25:47.610Z,3456.00
2019-03-10T09:26:47.542Z,3436.00
2019-03-10T09:27:47.562Z,3472.00
2019-03-10T09:28:47.555Z,3416.00
2019-03-10T09:29:47.507Z,3328.00
2019-03-10T09:30:47.509Z,3144.00
2019-03-10T09:31:47.511Z,3324.00
2019-03-10T09:32:47.532Z,3592.00
2019-03-10T09:33:47.459Z,3828.00
2019-03-10T09:34:47.471Z,4156.00
2019-03-10T09:35:47.455Z,4448.00
2019-03-10T09:36:47.463Z,4260.00
2019-03-10T09:37:47.483Z,4116.00
2019-03-10T09:38:47.429Z,3980.00
2019-03-10T09:39:47.416Z,3700.00
2019-03-10T09:40:47.398Z,3628.00
2019-03-10T09:41:47.404Z,3900.00
2019-03-10T09:42:47.370Z,3600.00
2019-03-10T09:43:47.360Z,3260.00
2019-03-10T09:44:47.355Z,3100.00
2019-03-10T09:45:47.324Z,3260.00
2019-03-10T09:46:47.331Z,3124.00
2019-03-10T09:47:47.325Z,2984.00
2019-03-10T09:48:47.301Z,2720.00
2019-03-10T09:49:47.286Z,2448.00
2019-03-10T09:50:47.305Z,2264.00
2019-03-10T09:51:47.267Z,2224.00
2019-03-10T09:52:47.284Z,2340.00
2019-03-10T09:53:47.242Z,2556.00
2019-03-10T09:54:47.256Z,2572.00
2019-03-10T09:55:47.238Z,2728.00
2019-03-10T09:56:47.214Z,2952.00
2019-03-10T09:57:47.230Z,3044.00
2019-03-10T09:58:47.270Z,2904.00
2019-03-10T09:59:47.226Z,2996.00
2019-03-10T10:00:47.193Z,3088.00
2019-03-10T10:01:47.172Z,3020.00
2019-03-10T10:02:47.157Z,2880.00
2019-03-10T10:06:46.090Z,2956.00
2019-03-10T10:07:47.057Z,3056.00
2019-03-10T10:08:47.063Z,2924.00
2019-03-10T10:09:47.030Z,2840.00
2019-03-10T10:10:47.072Z,2804.00
2019-03-10T10:11:47.014Z,2788.00
2019-03-10T10:12:47.002Z,2740.00
2019-03-10T10:13:47.042Z,2536.00
2019-03-10T10:14:48.704Z,2576.00
2019-03-10T10:15:46.997Z,2536.00
2019-03-10T10:16:47.005Z,2492.00
2019-03-10T10:17:46.954Z,2448.00
2019-03-10T10:18:46.982Z,2296.00
2019-03-10T10:19:46.969Z,2316.00
2019-03-10T10:20:46.923Z,2252.00
2019-03-10T10:21:46.959Z,2196.00
2019-03-10T10:22:46.922Z,2352.00
2019-03-10T10:23:46.930Z,2620.00
2019-03-10T10:24:46.874Z,2708.00
2019-03-10T10:25:46.891Z,3048.00
2019-03-10T10:26:46.861Z,3592.00
2019-03-10T10:27:46.938Z,3732.00
2019-03-10T10:28:46.905Z,4000.00
2019-03-10T10:29:46.878Z,4568.00
2019-03-10T10:30:46.854Z,5328.00
2019-03-10T10:31:46.838Z,5408.00
2019-03-10T10:32:46.976Z,5432.00
2019-03-10T10:33:46.835Z,5588.00
2019-03-10T10:34:46.763Z,5840.00
2019-03-10T10:35:46.759Z,5524.00
2019-03-10T10:36:46.745Z,5008.00
2019-03-10T10:37:46.753Z,4736.00
2019-03-10T10:38:46.732Z,4852.00
2019-03-10T10:39:46.758Z,4660.00
2019-03-10T10:40:46.713Z,4568.00
2019-03-10T10:41:46.688Z,4236.00
2019-03-10T10:42:46.687Z,4092.00
2019-03-10T10:43:46.692Z,4152.00
2019-03-10T10:44:46.671Z,4136.00
2019-03-10T10:45:46.680Z,4216.00
2019-03-10T10:46:46.623Z,3624.00
2019-03-10T10:47:46.652Z,2952.00
2019-03-10T10:48:46.652Z,2764.00
2019-03-10T10:49:46.640Z,2644.00
2019-03-10T10:50:46.639Z,2676.00
2019-03-10T10:51:46.602Z,2440.00
2019-03-10T10:52:46.599Z,2520.00
2019-03-10T10:53:46.614Z,2464.00
2019-03-10T10:54:46.552Z,2516.00
2019-03-10T10:55:46.572Z,2320.00
2019-03-10T10:56:46.568Z,2032.00
2019-03-10T10:57:46.519Z,1812.00
2019-03-10T10:58:46.501Z,1680.00
2019-03-10T10:59:46.508Z,1592.00
2019-03-10T11:00:46.487Z,1480.00
2019-03-10T11:01:46.494Z,1308.00
2019-03-10T11:02:46.452Z,1220.00
2019-03-10T11:03:46.517Z,1336.00
2019-03-10T11:04:46.443Z,1796.00
2019-03-10T11:05:46.455Z,2184.00
2019-03-10T11:06:46.423Z,1876.00
2019-03-10T11:07:46.429Z,1892.00
2019-03-10T11:08:46.458Z,2040.00
2019-03-10T11:09:46.372Z,2020.00
2019-03-10T11:10:46.371Z,1808.00
2019-03-10T11:11:46.353Z,1568.00
2019-03-10T11:12:46.349Z,1568.00
2019-03-10T11:13:46.403Z,1852.00
2019-03-10T11:14:46.339Z,2180.00
2019-03-10T11:15:46.359Z,2424.00
2019-03-10T11:16:46.322Z,2732.00
2019-03-10T11:17:46.329Z,2880.00
2019-03-10T11:18:46.324Z,2644.00
2019-03-10T11:19:46.363Z,2240.00
2019-03-10T11:20:46.284Z,2444.00
2019-03-10T11:21:46.321Z,2648.00
2019-03-10T11:22:46.271Z,2392.00
2019-03-10T11:23:46.271Z,2292.00
2019-03-10T11:24:46.292Z,2352.00
2019-03-10T11:25:46.247Z,2388.00
2019-03-10T11:26:46.250Z,2388.00
2019-03-10T11:27:46.195Z,2568.00
2019-03-10T11:28:47.493Z,3080.00
2019-03-10T11:29:46.412Z,3824.00
2019-03-10T11:30:46.323Z,5088.00
2019-03-10T11:31:46.298Z,5720.00
2019-03-10T11:32:46.270Z,6536.00
2019-03-10T11:33:46.127Z,5752.00
2019-03-10T11:34:46.180Z,4096.00
2019-03-10T11:35:46.114Z,2932.00
2019-03-10T11:36:46.126Z,2644.00
2019-03-10T11:37:46.121Z,2976.00
2019-03-10T11:38:46.098Z,4244.00
2019-03-10T11:39:46.085Z,4676.00
2019-03-10T11:40:46.027Z,3940.00
2019-03-10T11:41:47.961Z,3080.00
2019-03-10T11:42:46.032Z,3048.00
2019-03-10T11:43:46.004Z,3012.00
2019-03-10T11:44:46.042Z,3004.00
2019-03-10T11:45:45.984Z,2964.00
2019-03-10T11:46:45.971Z,2480.00
2019-03-10T11:47:45.968Z,2100.00
2019-03-10T11:48:45.941Z,2548.00
2019-03-10T11:49:45.988Z,3288.00
2019-03-10T11:50:45.930Z,3896.00
2019-03-10T11:51:45.995Z,5076.00
2019-03-10T11:52:45.913Z,5624.00
2019-03-10T11:53:45.927Z,5752.00
2019-03-10T11:54:45.994Z,4832.00
2019-03-10T11:55:45.895Z,5584.00
2019-03-10T11:56:45.867Z,6644.00
2019-03-10T11:57:45.879Z,6232.00
2019-03-10T11:58:45.839Z,5876.00
2019-03-10T11:59:45.847Z,5424.00
2019-03-10T12:00:45.899Z,5164.00
2019-03-10T12:01:45.953Z,5188.00
2019-03-10T12:02:45.893Z,6224.00
2019-03-10T12:03:45.855Z,6584.00
2019-03-10T12:04:45.806Z,7568.00
2019-03-10T12:05:45.799Z,6644.00
2019-03-10T12:10:17.204Z,4568.00
2019-03-10T12:11:18.220Z,3788.00
2019-03-10T12:12:18.196Z,3140.00
2019-03-10T12:13:18.195Z,2864.00
2019-03-10T12:14:18.207Z,2916.00
2019-03-10T12:15:18.167Z,3340.00
2019-03-10T12:16:18.150Z,4016.00
2019-03-10T12:17:18.182Z,4308.00
2019-03-10T12:18:18.116Z,4416.00
2019-03-10T12:19:18.169Z,4160.00
2019-03-10T12:20:18.094Z,3968.00
2019-03-10T12:21:18.085Z,3872.00
2019-03-10T12:22:18.100Z,4148.00
2019-03-10T12:23:18.099Z,4408.00
2019-03-10T12:24:18.055Z,4044.00
2019-03-10T12:25:18.105Z,4216.00
2019-03-10T12:26:18.039Z,4384.00
2019-03-10T12:27:18.036Z,4492.00
2019-03-10T12:28:18.020Z,4488.00
2019-03-10T12:29:18.016Z,4368.00
2019-03-10T12:30:18.044Z,4020.00
2019-03-10T12:31:17.998Z,4124.00
2019-03-10T12:32:18.010Z,4856.00
2019-03-10T12:33:17.984Z,5348.00
2019-03-10T12:34:17.980Z,5436.00
2019-03-10T12:35:17.950Z,5228.00
2019-03-10T12:36:17.956Z,4648.00
2019-03-10T12:37:17.942Z,5316.00
2019-03-10T12:38:17.941Z,6896.00
2019-03-10T12:39:17.950Z,7560.00
2019-03-10T12:40:18.056Z,11692.00
2019-03-10T12:41:17.944Z,13076.00
2019-03-10T12:42:18.076Z,9692.00
2019-03-10T12:43:17.999Z,9200.00
2019-03-10T12:44:18.331Z,7092.00
2019-03-10T12:45:18.028Z,6200.00
2019-03-10T12:46:17.999Z,5308.00
2019-03-10T12:47:17.821Z,6364.00
2019-03-10T12:48:17.920Z,6520.00
2019-03-10T12:49:17.832Z,5324.00
2019-03-10T12:50:18.830Z,3604.00
2019-03-10T12:51:17.786Z,3052.00
2019-03-10T12:52:17.763Z,3512.00
2019-03-10T12:53:17.728Z,5316.00
2019-03-10T12:54:17.747Z,6620.00
2019-03-10T12:55:17.798Z,6652.00
2019-03-10T12:56:17.748Z,5936.00
2019-03-10T12:57:17.687Z,5724.00
2019-03-10T12:58:17.691Z,5064.00
2019-03-10T12:59:17.672Z,4076.00
2019-03-10T13:00:17.671Z,3088.00
2019-03-10T13:01:17.666Z,2452.00
2019-03-10T13:02:17.633Z,2140.00
2019-03-10T13:03:17.636Z,1920.00
2019-03-10T13:04:19.203Z,1764.00
2019-03-10T13:05:17.664Z,1528.00
2019-03-10T13:06:17.595Z,1300.00
2019-03-10T13:07:17.751Z,980.00
2019-03-10T13:08:17.605Z,776.00
2019-03-10T13:09:17.585Z,736.00
2019-03-10T13:10:17.588Z,720.00
2019-03-10T13:11:17.621Z,704.00
2019-03-10T13:12:17.727Z,680.00
2019-03-10T13:33:14.182Z,1740.00
2019-03-10T13:34:15.154Z,1324.00